sensor_id;sensor_type;location;lat;lon;timestamp;P1;durP1;ratioP1;P2;durP2;ratioP2
1831;SDS011;1680;48.106;11.708;2022-07-03T00:02:26;3.97;;;3.67;;
1831;SDS011;1680;48.106;11.708;2022-07-03T00:04:52;4.00;;;3.70;;
1831;SDS011;1680;48.106;11.708;2022-07-03T00:07:19;4.27;;;3.97;;
1831;SDS011;1680;48.106;11.708;2022-07-03T00:09:45;5.10;;;4.20;;
1831;SDS011;1680;48.106;11.708;2022-07-03T00:12:12;4.47;;;4.07;;
1831;SDS011;1680;48.106;11.708;2022-07-03T00:14:38;4.53;;;4.10;;
1831;SDS011;1680;48.106;11.708;2022-07-03T00:17:05;4.87;;;4.47;;
1831;SDS011;1680;48.106;11.708;2022-07-03T00:19:33;4.53;;;4.13;;
1831;SDS011;1680;48.106;11.708;2022-07-03T00:22:01;4.57;;;4.13;;
1831;SDS011;1680;48.106;11.708;2022-07-03T00:24:28;6.63;;;4.73;;
1831;SDS011;1680;48.106;11.708;2022-07-03T00:26:58;4.10;;;3.80;;
1831;SDS011;1680;48.106;11.708;2022-07-03T00:29:27;4.77;;;4.27;;
1831;SDS011;1680;48.106;11.708;2022-07-03T00:31:55;4.53;;;4.13;;
1831;SDS011;1680;48.106;11.708;2022-07-03T00:34:22;5.00;;;4.60;;
1831;SDS011;1680;48.106;11.708;2022-07-03T00:36:53;4.10;;;3.80;;
1831;SDS011;1680;48.106;11.708;2022-07-03T00:39:20;4.30;;;4.00;;
1831;SDS011;1680;48.106;11.708;2022-07-03T00:41:46;5.03;;;4.40;;
1831;SDS011;1680;48.106;11.708;2022-07-03T00:44:25;4.83;;;4.40;;
1831;SDS011;1680;48.106;11.708;2022-07-03T00:46:52;5.93;;;4.67;;
1831;SDS011;1680;48.106;11.708;2022-07-03T00:49:18;5.17;;;4.20;;
1831;SDS011;1680;48.106;11.708;2022-07-03T00:51:46;4.73;;;4.23;;
1831;SDS011;1680;48.106;11.708;2022-07-03T00:54:18;5.83;;;4.80;;
1831;SDS011;1680;48.106;11.708;2022-07-03T00:56:46;4.70;;;4.30;;
1831;SDS011;1680;48.106;11.708;2022-07-03T00:59:15;4.57;;;3.90;;
1831;SDS011;1680;48.106;11.708;2022-07-03T01:01:42;4.60;;;4.20;;
1831;SDS011;1680;48.106;11.708;2022-07-03T01:04:14;4.83;;;4.33;;
1831;SDS011;1680;48.106;11.708;2022-07-03T01:06:48;4.90;;;4.50;;
1831;SDS011;1680;48.106;11.708;2022-07-03T01:09:15;4.13;;;3.83;;
1831;SDS011;1680;48.106;11.708;2022-07-03T01:11:48;4.77;;;4.40;;
1831;SDS011;1680;48.106;11.708;2022-07-03T01:14:15;4.10;;;3.80;;
1831;SDS011;1680;48.106;11.708;2022-07-03T01:16:49;4.23;;;3.93;;
1831;SDS011;1680;48.106;11.708;2022-07-03T01:19:23;4.27;;;3.80;;
1831;SDS011;1680;48.106;11.708;2022-07-03T01:21:56;4.70;;;4.30;;
1831;SDS011;1680;48.106;11.708;2022-07-03T01:24:36;4.27;;;3.97;;
1831;SDS011;1680;48.106;11.708;2022-07-03T01:27:07;4.37;;;3.97;;
1831;SDS011;1680;48.106;11.708;2022-07-03T01:29:35;4.67;;;4.27;;
1831;SDS011;1680;48.106;11.708;2022-07-03T01:32:04;4.17;;;3.77;;
1831;SDS011;1680;48.106;11.708;2022-07-03T01:34:33;4.43;;;4.13;;
1831;SDS011;1680;48.106;11.708;2022-07-03T01:37:00;4.20;;;3.80;;
1831;SDS011;1680;48.106;11.708;2022-07-03T01:39:28;5.00;;;4.10;;
1831;SDS011;1680;48.106;11.708;2022-07-03T01:41:56;4.10;;;3.70;;
1831;SDS011;1680;48.106;11.708;2022-07-03T01:44:26;4.40;;;4.00;;
1831;SDS011;1680;48.106;11.708;2022-07-03T01:46:53;4.03;;;3.73;;
1831;SDS011;1680;48.106;11.708;2022-07-03T01:49:20;3.50;;;3.20;;
1831;SDS011;1680;48.106;11.708;2022-07-03T01:51:46;4.53;;;3.53;;
1831;SDS011;1680;48.106;11.708;2022-07-03T01:54:15;3.80;;;3.50;;
1831;SDS011;1680;48.106;11.708;2022-07-03T01:56:43;3.80;;;3.30;;
1831;SDS011;1680;48.106;11.708;2022-07-03T01:59:10;6.77;;;4.20;;
1831;SDS011;1680;48.106;11.708;2022-07-03T02:01:40;3.47;;;3.27;;
1831;SDS011;1680;48.106;11.708;2022-07-03T02:04:09;3.47;;;3.20;;
1831;SDS011;1680;48.106;11.708;2022-07-03T02:06:39;3.63;;;3.43;;
1831;SDS011;1680;48.106;11.708;2022-07-03T02:09:07;4.03;;;3.73;;
1831;SDS011;1680;48.106;11.708;2022-07-03T02:11:34;4.40;;;4.00;;
1831;SDS011;1680;48.106;11.708;2022-07-03T02:14:05;4.00;;;3.60;;
1831;SDS011;1680;48.106;11.708;2022-07-03T02:16:38;4.27;;;3.97;;
1831;SDS011;1680;48.106;11.708;2022-07-03T02:19:08;3.63;;;3.33;;
1831;SDS011;1680;48.106;11.708;2022-07-03T02:21:37;3.63;;;3.20;;
1831;SDS011;1680;48.106;11.708;2022-07-03T02:24:11;3.87;;;3.50;;
1831;SDS011;1680;48.106;11.708;2022-07-03T02:26:42;3.40;;;3.10;;
1831;SDS011;1680;48.106;11.708;2022-07-03T02:29:13;3.57;;;3.37;;
1831;SDS011;1680;48.106;11.708;2022-07-03T02:31:42;3.80;;;3.50;;
1831;SDS011;1680;48.106;11.708;2022-07-03T02:34:11;3.80;;;3.50;;
1831;SDS011;1680;48.106;11.708;2022-07-03T02:36:39;3.80;;;3.50;;
1831;SDS011;1680;48.106;11.708;2022-07-03T02:39:08;3.37;;;3.17;;
1831;SDS011;1680;48.106;11.708;2022-07-03T02:41:42;4.93;;;3.60;;
1831;SDS011;1680;48.106;11.708;2022-07-03T02:44:14;3.50;;;3.30;;
1831;SDS011;1680;48.106;11.708;2022-07-03T02:46:42;4.53;;;3.27;;
1831;SDS011;1680;48.106;11.708;2022-07-03T02:49:20;3.53;;;3.23;;
1831;SDS011;1680;48.106;11.708;2022-07-03T02:51:50;3.97;;;3.60;;
1831;SDS011;1680;48.106;11.708;2022-07-03T02:54:19;4.33;;;3.33;;
1831;SDS011;1680;48.106;11.708;2022-07-03T02:56:49;3.83;;;3.53;;
1831;SDS011;1680;48.106;11.708;2022-07-03T02:59:19;4.20;;;3.73;;
1831;SDS011;1680;48.106;11.708;2022-07-03T03:01:48;3.57;;;3.27;;
1831;SDS011;1680;48.106;11.708;2022-07-03T03:04:25;4.00;;;3.60;;
1831;SDS011;1680;48.106;11.708;2022-07-03T03:06:54;3.73;;;3.43;;
1831;SDS011;1680;48.106;11.708;2022-07-03T03:09:24;3.47;;;3.17;;
1831;SDS011;1680;48.106;11.708;2022-07-03T03:11:51;3.10;;;2.90;;
1831;SDS011;1680;48.106;11.708;2022-07-03T03:14:19;3.73;;;3.43;;
1831;SDS011;1680;48.106;11.708;2022-07-03T03:16:46;3.50;;;3.20;;
1831;SDS011;1680;48.106;11.708;2022-07-03T03:19:13;3.70;;;3.40;;
1831;SDS011;1680;48.106;11.708;2022-07-03T03:21:42;3.67;;;3.37;;
1831;SDS011;1680;48.106;11.708;2022-07-03T03:24:10;3.80;;;3.47;;
1831;SDS011;1680;48.106;11.708;2022-07-03T03:26:37;3.77;;;3.47;;
1831;SDS011;1680;48.106;11.708;2022-07-03T03:29:04;3.33;;;3.13;;
1831;SDS011;1680;48.106;11.708;2022-07-03T03:31:31;3.53;;;3.23;;
1831;SDS011;1680;48.106;11.708;2022-07-03T03:33:58;3.87;;;3.57;;
1831;SDS011;1680;48.106;11.708;2022-07-03T03:36:25;3.80;;;3.50;;
1831;SDS011;1680;48.106;11.708;2022-07-03T03:38:53;3.70;;;3.40;;
1831;SDS011;1680;48.106;11.708;2022-07-03T03:41:20;3.73;;;3.43;;
1831;SDS011;1680;48.106;11.708;2022-07-03T03:43:46;3.90;;;3.60;;
1831;SDS011;1680;48.106;11.708;2022-07-03T03:46:13;3.97;;;3.67;;
1831;SDS011;1680;48.106;11.708;2022-07-03T03:48:40;4.30;;;3.43;;
1831;SDS011;1680;48.106;11.708;2022-07-03T03:51:07;3.60;;;3.30;;
1831;SDS011;1680;48.106;11.708;2022-07-03T03:53:34;3.70;;;3.40;;
1831;SDS011;1680;48.106;11.708;2022-07-03T03:56:02;3.30;;;3.03;;
1831;SDS011;1680;48.106;11.708;2022-07-03T03:58:30;3.23;;;3.03;;
1831;SDS011;1680;48.106;11.708;2022-07-03T04:00:56;3.60;;;3.30;;
1831;SDS011;1680;48.106;11.708;2022-07-03T04:03:23;3.83;;;3.43;;
1831;SDS011;1680;48.106;11.708;2022-07-03T04:05:50;3.40;;;3.10;;
1831;SDS011;1680;48.106;11.708;2022-07-03T04:08:16;4.00;;;3.60;;
1831;SDS011;1680;48.106;11.708;2022-07-03T04:10:42;3.77;;;3.47;;
1831;SDS011;1680;48.106;11.708;2022-07-03T04:13:10;3.70;;;3.40;;
1831;SDS011;1680;48.106;11.708;2022-07-03T04:15:37;3.83;;;3.43;;
1831;SDS011;1680;48.106;11.708;2022-07-03T04:18:03;3.80;;;3.50;;
1831;SDS011;1680;48.106;11.708;2022-07-03T04:20:30;3.87;;;3.57;;
1831;SDS011;1680;48.106;11.708;2022-07-03T04:22:56;8.00;;;3.53;;
1831;SDS011;1680;48.106;11.708;2022-07-03T04:25:23;5.00;;;3.60;;
1831;SDS011;1680;48.106;11.708;2022-07-03T04:27:49;3.90;;;3.60;;
1831;SDS011;1680;48.106;11.708;2022-07-03T04:30:17;3.70;;;3.40;;
1831;SDS011;1680;48.106;11.708;2022-07-03T04:32:44;3.80;;;3.50;;
1831;SDS011;1680;48.106;11.708;2022-07-03T04:35:11;3.50;;;3.20;;
1831;SDS011;1680;48.106;11.708;2022-07-03T04:37:38;3.70;;;3.40;;
1831;SDS011;1680;48.106;11.708;2022-07-03T04:40:05;4.00;;;3.70;;
1831;SDS011;1680;48.106;11.708;2022-07-03T04:42:32;5.07;;;3.50;;
1831;SDS011;1680;48.106;11.708;2022-07-03T04:44:58;3.83;;;3.53;;
1831;SDS011;1680;48.106;11.708;2022-07-03T04:47:26;3.93;;;3.63;;
1831;SDS011;1680;48.106;11.708;2022-07-03T04:49:53;3.53;;;3.23;;
1831;SDS011;1680;48.106;11.708;2022-07-03T04:52:19;3.60;;;3.40;;
1831;SDS011;1680;48.106;11.708;2022-07-03T04:54:45;3.90;;;3.57;;
1831;SDS011;1680;48.106;11.708;2022-07-03T04:57:12;4.30;;;4.00;;
1831;SDS011;1680;48.106;11.708;2022-07-03T04:59:38;3.90;;;3.60;;
1831;SDS011;1680;48.106;11.708;2022-07-03T05:02:05;3.33;;;3.13;;
1831;SDS011;1680;48.106;11.708;2022-07-03T05:04:33;3.90;;;3.60;;
1831;SDS011;1680;48.106;11.708;2022-07-03T05:06:59;3.83;;;3.50;;
1831;SDS011;1680;48.106;11.708;2022-07-03T05:09:26;4.10;;;3.80;;
1831;SDS011;1680;48.106;11.708;2022-07-03T05:11:52;4.20;;;3.40;;
1831;SDS011;1680;48.106;11.708;2022-07-03T05:14:19;3.70;;;3.40;;
1831;SDS011;1680;48.106;11.708;2022-07-03T05:16:45;3.77;;;3.47;;
1831;SDS011;1680;48.106;11.708;2022-07-03T05:19:12;3.80;;;3.50;;
1831;SDS011;1680;48.106;11.708;2022-07-03T05:21:39;3.70;;;3.50;;
1831;SDS011;1680;48.106;11.708;2022-07-03T05:24:06;3.70;;;3.50;;
1831;SDS011;1680;48.106;11.708;2022-07-03T05:26:33;3.83;;;3.50;;
1831;SDS011;1680;48.106;11.708;2022-07-03T05:28:59;3.70;;;3.40;;
1831;SDS011;1680;48.106;11.708;2022-07-03T05:31:26;3.93;;;3.73;;
1831;SDS011;1680;48.106;11.708;2022-07-03T05:33:52;3.67;;;3.47;;
1831;SDS011;1680;48.106;11.708;2022-07-03T05:36:19;3.50;;;3.20;;
1831;SDS011;1680;48.106;11.708;2022-07-03T05:38:46;3.63;;;3.43;;
1831;SDS011;1680;48.106;11.708;2022-07-03T05:41:30;5.03;;;3.73;;
1831;SDS011;1680;48.106;11.708;2022-07-03T05:43:57;3.47;;;3.27;;
1831;SDS011;1680;48.106;11.708;2022-07-03T05:46:23;3.70;;;3.33;;
1831;SDS011;1680;48.106;11.708;2022-07-03T05:48:50;3.47;;;3.27;;
1831;SDS011;1680;48.106;11.708;2022-07-03T05:51:16;3.57;;;3.33;;
1831;SDS011;1680;48.106;11.708;2022-07-03T05:53:43;3.87;;;3.57;;
1831;SDS011;1680;48.106;11.708;2022-07-03T05:56:11;4.20;;;3.43;;
1831;SDS011;1680;48.106;11.708;2022-07-03T05:58:37;3.93;;;3.37;;
1831;SDS011;1680;48.106;11.708;2022-07-03T06:01:06;3.13;;;2.87;;
1831;SDS011;1680;48.106;11.708;2022-07-03T06:03:33;3.20;;;3.00;;
1831;SDS011;1680;48.106;11.708;2022-07-03T06:05:59;3.30;;;3.00;;
1831;SDS011;1680;48.106;11.708;2022-07-03T06:08:26;4.90;;;3.83;;
1831;SDS011;1680;48.106;11.708;2022-07-03T06:10:53;3.70;;;3.20;;
1831;SDS011;1680;48.106;11.708;2022-07-03T06:13:21;2.90;;;2.70;;
1831;SDS011;1680;48.106;11.708;2022-07-03T06:15:48;3.77;;;3.17;;
1831;SDS011;1680;48.106;11.708;2022-07-03T06:18:14;3.40;;;3.10;;
1831;SDS011;1680;48.106;11.708;2022-07-03T06:20:41;3.10;;;2.80;;
1831;SDS011;1680;48.106;11.708;2022-07-03T06:23:07;3.50;;;3.20;;
1831;SDS011;1680;48.106;11.708;2022-07-03T06:25:34;2.97;;;2.77;;
1831;SDS011;1680;48.106;11.708;2022-07-03T06:28:00;2.93;;;2.73;;
1831;SDS011;1680;48.106;11.708;2022-07-03T06:30:28;4.70;;;3.10;;
1831;SDS011;1680;48.106;11.708;2022-07-03T06:32:55;2.80;;;2.60;;
1831;SDS011;1680;48.106;11.708;2022-07-03T06:35:21;2.83;;;2.63;;
1831;SDS011;1680;48.106;11.708;2022-07-03T06:37:48;2.60;;;2.50;;
1831;SDS011;1680;48.106;11.708;2022-07-03T06:40:14;3.03;;;2.73;;
1831;SDS011;1680;48.106;11.708;2022-07-03T06:42:41;3.00;;;2.80;;
1831;SDS011;1680;48.106;11.708;2022-07-03T06:45:07;2.70;;;2.50;;
1831;SDS011;1680;48.106;11.708;2022-07-03T06:47:37;2.83;;;2.63;;
1831;SDS011;1680;48.106;11.708;2022-07-03T06:50:04;2.80;;;2.60;;
1831;SDS011;1680;48.106;11.708;2022-07-03T06:52:31;2.87;;;2.67;;
1831;SDS011;1680;48.106;11.708;2022-07-03T06:54:57;3.30;;;2.83;;
1831;SDS011;1680;48.106;11.708;2022-07-03T06:57:23;2.70;;;2.60;;
1831;SDS011;1680;48.106;11.708;2022-07-03T06:59:50;2.93;;;2.73;;
1831;SDS011;1680;48.106;11.708;2022-07-03T07:02:16;2.80;;;2.60;;
1831;SDS011;1680;48.106;11.708;2022-07-03T07:04:44;2.40;;;2.30;;
1831;SDS011;1680;48.106;11.708;2022-07-03T07:07:11;3.00;;;2.67;;
1831;SDS011;1680;48.106;11.708;2022-07-03T07:09:37;2.83;;;2.63;;
1831;SDS011;1680;48.106;11.708;2022-07-03T07:12:04;2.77;;;2.53;;
1831;SDS011;1680;48.106;11.708;2022-07-03T07:14:31;3.10;;;2.80;;
1831;SDS011;1680;48.106;11.708;2022-07-03T07:16:57;2.60;;;2.40;;
1831;SDS011;1680;48.106;11.708;2022-07-03T07:19:23;4.03;;;2.77;;
1831;SDS011;1680;48.106;11.708;2022-07-03T07:21:51;2.90;;;2.70;;
1831;SDS011;1680;48.106;11.708;2022-07-03T07:24:18;3.13;;;2.80;;
1831;SDS011;1680;48.106;11.708;2022-07-03T07:26:45;2.77;;;2.57;;
1831;SDS011;1680;48.106;11.708;2022-07-03T07:29:12;2.90;;;2.70;;
1831;SDS011;1680;48.106;11.708;2022-07-03T07:31:38;2.97;;;2.73;;
1831;SDS011;1680;48.106;11.708;2022-07-03T07:34:05;3.03;;;2.83;;
1831;SDS011;1680;48.106;11.708;2022-07-03T07:36:31;2.70;;;2.50;;
1831;SDS011;1680;48.106;11.708;2022-07-03T07:39:00;3.30;;;3.00;;
1831;SDS011;1680;48.106;11.708;2022-07-03T07:41:26;2.90;;;2.70;;
1831;SDS011;1680;48.106;11.708;2022-07-03T07:43:53;3.00;;;2.80;;
1831;SDS011;1680;48.106;11.708;2022-07-03T07:46:19;2.83;;;2.63;;
1831;SDS011;1680;48.106;11.708;2022-07-03T07:48:46;3.20;;;2.93;;
1831;SDS011;1680;48.106;11.708;2022-07-03T07:51:12;3.00;;;2.80;;
1831;SDS011;1680;48.106;11.708;2022-07-03T07:53:39;3.43;;;3.13;;
1831;SDS011;1680;48.106;11.708;2022-07-03T07:56:07;4.27;;;2.90;;
1831;SDS011;1680;48.106;11.708;2022-07-03T07:58:33;2.80;;;2.60;;
1831;SDS011;1680;48.106;11.708;2022-07-03T08:00:59;3.10;;;2.70;;
1831;SDS011;1680;48.106;11.708;2022-07-03T08:03:44;3.20;;;3.00;;
1831;SDS011;1680;48.106;11.708;2022-07-03T08:06:28;3.40;;;3.10;;
1831;SDS011;1680;48.106;11.708;2022-07-03T08:08:54;3.70;;;2.93;;
1831;SDS011;1680;48.106;11.708;2022-07-03T08:11:22;3.10;;;2.90;;
1831;SDS011;1680;48.106;11.708;2022-07-03T08:13:48;2.87;;;2.67;;
1831;SDS011;1680;48.106;11.708;2022-07-03T08:16:15;2.80;;;2.60;;
1831;SDS011;1680;48.106;11.708;2022-07-03T08:18:42;2.83;;;2.63;;
1831;SDS011;1680;48.106;11.708;2022-07-03T08:21:09;3.00;;;2.80;;
1831;SDS011;1680;48.106;11.708;2022-07-03T08:23:35;3.10;;;2.90;;
1831;SDS011;1680;48.106;11.708;2022-07-03T08:26:02;2.70;;;2.50;;
1831;SDS011;1680;48.106;11.708;2022-07-03T08:28:29;2.70;;;2.50;;
1831;SDS011;1680;48.106;11.708;2022-07-03T08:30:56;2.87;;;2.67;;
1831;SDS011;1680;48.106;11.708;2022-07-03T08:33:22;2.53;;;2.43;;
1831;SDS011;1680;48.106;11.708;2022-07-03T08:35:49;2.90;;;2.70;;
1831;SDS011;1680;48.106;11.708;2022-07-03T08:38:15;2.33;;;2.23;;
1831;SDS011;1680;48.106;11.708;2022-07-03T08:40:42;3.00;;;2.80;;
1831;SDS011;1680;48.106;11.708;2022-07-03T08:43:09;2.80;;;2.60;;
1831;SDS011;1680;48.106;11.708;2022-07-03T08:45:37;2.93;;;2.73;;
1831;SDS011;1680;48.106;11.708;2022-07-03T08:48:05;2.80;;;2.70;;
1831;SDS011;1680;48.106;11.708;2022-07-03T08:50:32;2.33;;;2.13;;
1831;SDS011;1680;48.106;11.708;2022-07-03T08:52:59;2.70;;;2.50;;
1831;SDS011;1680;48.106;11.708;2022-07-03T08:55:28;2.63;;;2.43;;
1831;SDS011;1680;48.106;11.708;2022-07-03T08:57:54;3.73;;;2.47;;
1831;SDS011;1680;48.106;11.708;2022-07-03T09:00:22;4.50;;;2.40;;
1831;SDS011;1680;48.106;11.708;2022-07-03T09:02:49;2.37;;;2.27;;
1831;SDS011;1680;48.106;11.708;2022-07-03T09:05:16;2.30;;;2.20;;
1831;SDS011;1680;48.106;11.708;2022-07-03T09:07:43;2.43;;;2.33;;
1831;SDS011;1680;48.106;11.708;2022-07-03T09:10:11;2.67;;;2.47;;
1831;SDS011;1680;48.106;11.708;2022-07-03T09:12:37;2.63;;;2.43;;
1831;SDS011;1680;48.106;11.708;2022-07-03T09:15:05;2.07;;;1.97;;
1831;SDS011;1680;48.106;11.708;2022-07-03T09:17:31;2.70;;;2.50;;
1831;SDS011;1680;48.106;11.708;2022-07-03T09:20:00;2.70;;;2.50;;
1831;SDS011;1680;48.106;11.708;2022-07-03T09:22:29;2.50;;;2.30;;
1831;SDS011;1680;48.106;11.708;2022-07-03T09:25:02;2.57;;;2.37;;
1831;SDS011;1680;48.106;11.708;2022-07-03T09:27:29;2.40;;;2.30;;
1831;SDS011;1680;48.106;11.708;2022-07-03T09:29:58;2.27;;;2.17;;
1831;SDS011;1680;48.106;11.708;2022-07-03T09:32:25;2.43;;;2.33;;
1831;SDS011;1680;48.106;11.708;2022-07-03T09:37:34;3.30;;;2.20;;
1831;SDS011;1680;48.106;11.708;2022-07-03T09:40:01;2.40;;;2.20;;
1831;SDS011;1680;48.106;11.708;2022-07-03T09:42:27;2.30;;;2.20;;
1831;SDS011;1680;48.106;11.708;2022-07-03T09:44:54;2.47;;;1.80;;
1831;SDS011;1680;48.106;11.708;2022-07-03T09:47:21;2.07;;;1.97;;
1831;SDS011;1680;48.106;11.708;2022-07-03T09:49:49;3.83;;;2.27;;
1831;SDS011;1680;48.106;11.708;2022-07-03T09:52:28;1.80;;;1.70;;
1831;SDS011;1680;48.106;11.708;2022-07-03T09:54:56;2.00;;;1.90;;
1831;SDS011;1680;48.106;11.708;2022-07-03T09:57:22;3.00;;;1.97;;
1831;SDS011;1680;48.106;11.708;2022-07-03T09:59:56;1.80;;;1.70;;
1831;SDS011;1680;48.106;11.708;2022-07-03T10:02:33;3.37;;;3.13;;
1831;SDS011;1680;48.106;11.708;2022-07-03T10:05:10;2.40;;;2.30;;
1831;SDS011;1680;48.106;11.708;2022-07-03T10:07:48;1.93;;;1.83;;
1831;SDS011;1680;48.106;11.708;2022-07-03T10:10:16;1.70;;;1.60;;
1831;SDS011;1680;48.106;11.708;2022-07-03T10:12:43;1.83;;;1.73;;
1831;SDS011;1680;48.106;11.708;2022-07-03T10:15:11;1.80;;;1.70;;
1831;SDS011;1680;48.106;11.708;2022-07-03T10:17:38;1.90;;;1.80;;
1831;SDS011;1680;48.106;11.708;2022-07-03T10:20:06;1.60;;;1.50;;
1831;SDS011;1680;48.106;11.708;2022-07-03T10:22:32;1.30;;;1.20;;
1831;SDS011;1680;48.106;11.708;2022-07-03T10:25:01;1.50;;;1.40;;
1831;SDS011;1680;48.106;11.708;2022-07-03T10:27:29;1.40;;;1.30;;
1831;SDS011;1680;48.106;11.708;2022-07-03T10:29:56;1.47;;;1.37;;
1831;SDS011;1680;48.106;11.708;2022-07-03T10:32:24;1.77;;;1.67;;
1831;SDS011;1680;48.106;11.708;2022-07-03T10:34:51;1.60;;;1.47;;
1831;SDS011;1680;48.106;11.708;2022-07-03T10:37:18;2.13;;;1.60;;
1831;SDS011;1680;48.106;11.708;2022-07-03T10:39:48;2.30;;;2.20;;
1831;SDS011;1680;48.106;11.708;2022-07-03T10:42:19;1.57;;;1.47;;
1831;SDS011;1680;48.106;11.708;2022-07-03T10:45:07;1.63;;;1.53;;
1831;SDS011;1680;48.106;11.708;2022-07-03T10:47:42;1.50;;;1.40;;
1831;SDS011;1680;48.106;11.708;2022-07-03T10:50:10;3.20;;;1.50;;
1831;SDS011;1680;48.106;11.708;2022-07-03T10:52:37;1.90;;;1.67;;
1831;SDS011;1680;48.106;11.708;2022-07-03T10:55:04;1.40;;;1.30;;
1831;SDS011;1680;48.106;11.708;2022-07-03T10:57:31;1.40;;;1.30;;
1831;SDS011;1680;48.106;11.708;2022-07-03T10:59:59;1.60;;;1.50;;
1831;SDS011;1680;48.106;11.708;2022-07-03T11:02:29;1.80;;;1.70;;
1831;SDS011;1680;48.106;11.708;2022-07-03T11:05:07;1.53;;;1.43;;
1831;SDS011;1680;48.106;11.708;2022-07-03T11:07:35;1.30;;;1.20;;
1831;SDS011;1680;48.106;11.708;2022-07-03T11:12:53;1.30;;;1.20;;
1831;SDS011;1680;48.106;11.708;2022-07-03T11:15:26;1.60;;;1.50;;
1831;SDS011;1680;48.106;11.708;2022-07-03T11:18:11;1.50;;;1.40;;
1831;SDS011;1680;48.106;11.708;2022-07-03T11:20:46;1.30;;;1.20;;
1831;SDS011;1680;48.106;11.708;2022-07-03T11:23:23;1.30;;;1.23;;
1831;SDS011;1680;48.106;11.708;2022-07-03T11:25:54;1.37;;;1.27;;
1831;SDS011;1680;48.106;11.708;2022-07-03T11:31:16;1.60;;;1.50;;
1831;SDS011;1680;48.106;11.708;2022-07-03T11:33:44;1.60;;;1.40;;
1831;SDS011;1680;48.106;11.708;2022-07-03T11:36:11;1.37;;;1.27;;
1831;SDS011;1680;48.106;11.708;2022-07-03T11:38:37;1.40;;;1.30;;
1831;SDS011;1680;48.106;11.708;2022-07-03T11:41:06;1.60;;;1.50;;
1831;SDS011;1680;48.106;11.708;2022-07-03T11:43:33;1.37;;;1.27;;
1831;SDS011;1680;48.106;11.708;2022-07-03T11:46:00;1.40;;;1.33;;
1831;SDS011;1680;48.106;11.708;2022-07-03T11:48:27;1.93;;;1.20;;
1831;SDS011;1680;48.106;11.708;2022-07-03T11:50:59;1.37;;;1.23;;
1831;SDS011;1680;48.106;11.708;2022-07-03T11:53:27;1.60;;;1.50;;
1831;SDS011;1680;48.106;11.708;2022-07-03T11:55:55;1.33;;;1.23;;
1831;SDS011;1680;48.106;11.708;2022-07-03T11:58:22;1.63;;;1.53;;
1831;SDS011;1680;48.106;11.708;2022-07-03T12:00:48;1.93;;;1.83;;
1831;SDS011;1680;48.106;11.708;2022-07-03T12:03:25;2.27;;;1.20;;
1831;SDS011;1680;48.106;11.708;2022-07-03T12:05:53;1.57;;;1.47;;
1831;SDS011;1680;48.106;11.708;2022-07-03T12:08:25;1.40;;;1.30;;
1831;SDS011;1680;48.106;11.708;2022-07-03T12:10:55;1.70;;;1.60;;
1831;SDS011;1680;48.106;11.708;2022-07-03T12:13:22;1.50;;;1.20;;
1831;SDS011;1680;48.106;11.708;2022-07-03T12:15:49;1.40;;;1.30;;
1831;SDS011;1680;48.106;11.708;2022-07-03T12:18:16;1.40;;;1.30;;
1831;SDS011;1680;48.106;11.708;2022-07-03T12:20:42;1.93;;;1.43;;
1831;SDS011;1680;48.106;11.708;2022-07-03T12:23:09;1.73;;;1.60;;
1831;SDS011;1680;48.106;11.708;2022-07-03T12:25:39;1.47;;;1.37;;
1831;SDS011;1680;48.106;11.708;2022-07-03T12:28:07;1.47;;;1.37;;
1831;SDS011;1680;48.106;11.708;2022-07-03T12:30:34;1.70;;;1.50;;
1831;SDS011;1680;48.106;11.708;2022-07-03T12:33:02;1.50;;;1.40;;
1831;SDS011;1680;48.106;11.708;2022-07-03T12:35:29;1.50;;;1.40;;
1831;SDS011;1680;48.106;11.708;2022-07-03T12:37:55;1.80;;;1.70;;
1831;SDS011;1680;48.106;11.708;2022-07-03T12:40:22;1.73;;;1.50;;
1831;SDS011;1680;48.106;11.708;2022-07-03T12:42:51;1.83;;;1.60;;
1831;SDS011;1680;48.106;11.708;2022-07-03T12:45:19;1.73;;;1.63;;
1831;SDS011;1680;48.106;11.708;2022-07-03T12:47:46;1.87;;;1.50;;
1831;SDS011;1680;48.106;11.708;2022-07-03T12:50:22;1.57;;;1.47;;
1831;SDS011;1680;48.106;11.708;2022-07-03T12:52:49;1.47;;;1.37;;
1831;SDS011;1680;48.106;11.708;2022-07-03T12:55:22;1.60;;;1.50;;
1831;SDS011;1680;48.106;11.708;2022-07-03T12:57:50;1.57;;;1.47;;
1831;SDS011;1680;48.106;11.708;2022-07-03T13:00:50;1.30;;;1.20;;
1831;SDS011;1680;48.106;11.708;2022-07-03T13:03:26;1.77;;;1.67;;
1831;SDS011;1680;48.106;11.708;2022-07-03T13:05:52;1.90;;;1.70;;
1831;SDS011;1680;48.106;11.708;2022-07-03T13:08:19;1.80;;;1.70;;
1831;SDS011;1680;48.106;11.708;2022-07-03T13:10:53;3.83;;;1.70;;
1831;SDS011;1680;48.106;11.708;2022-07-03T13:13:21;2.80;;;2.10;;
1831;SDS011;1680;48.106;11.708;2022-07-03T13:15:48;1.80;;;1.70;;
1831;SDS011;1680;48.106;11.708;2022-07-03T13:18:14;1.67;;;1.57;;
1831;SDS011;1680;48.106;11.708;2022-07-03T13:20:41;1.60;;;1.50;;
1831;SDS011;1680;48.106;11.708;2022-07-03T13:23:07;2.20;;;1.70;;
1831;SDS011;1680;48.106;11.708;2022-07-03T13:25:34;1.83;;;1.60;;
1831;SDS011;1680;48.106;11.708;2022-07-03T13:28:05;1.90;;;1.80;;
1831;SDS011;1680;48.106;11.708;2022-07-03T13:30:33;1.60;;;1.50;;
1831;SDS011;1680;48.106;11.708;2022-07-03T13:33:00;1.60;;;1.50;;
1831;SDS011;1680;48.106;11.708;2022-07-03T13:35:26;1.80;;;1.70;;
1831;SDS011;1680;48.106;11.708;2022-07-03T13:37:53;1.80;;;1.70;;
1831;SDS011;1680;48.106;11.708;2022-07-03T13:40:19;2.10;;;2.00;;
1831;SDS011;1680;48.106;11.708;2022-07-03T13:42:46;3.37;;;1.70;;
1831;SDS011;1680;48.106;11.708;2022-07-03T13:45:12;2.23;;;1.80;;
1831;SDS011;1680;48.106;11.708;2022-07-03T13:47:40;2.07;;;1.80;;
1831;SDS011;1680;48.106;11.708;2022-07-03T13:50:07;2.13;;;1.90;;
1831;SDS011;1680;48.106;11.708;2022-07-03T13:52:34;2.20;;;2.10;;
1831;SDS011;1680;48.106;11.708;2022-07-03T13:55:00;1.83;;;1.73;;
1831;SDS011;1680;48.106;11.708;2022-07-03T13:57:27;2.27;;;2.00;;
1831;SDS011;1680;48.106;11.708;2022-07-03T13:59:53;2.10;;;1.90;;
1831;SDS011;1680;48.106;11.708;2022-07-03T14:02:20;2.17;;;1.97;;
1831;SDS011;1680;48.106;11.708;2022-07-03T14:04:48;1.97;;;1.87;;
1831;SDS011;1680;48.106;11.708;2022-07-03T14:07:14;2.10;;;2.00;;
1831;SDS011;1680;48.106;11.708;2022-07-03T14:09:41;2.33;;;2.13;;
1831;SDS011;1680;48.106;11.708;2022-07-03T14:12:07;2.07;;;1.87;;
1831;SDS011;1680;48.106;11.708;2022-07-03T14:14:34;2.23;;;2.03;;
1831;SDS011;1680;48.106;11.708;2022-07-03T14:17:01;2.40;;;1.87;;
1831;SDS011;1680;48.106;11.708;2022-07-03T14:19:27;2.30;;;2.00;;
1831;SDS011;1680;48.106;11.708;2022-07-03T14:21:55;1.97;;;1.87;;
1831;SDS011;1680;48.106;11.708;2022-07-03T14:24:22;3.30;;;2.00;;
1831;SDS011;1680;48.106;11.708;2022-07-03T14:26:48;2.13;;;1.90;;
1831;SDS011;1680;48.106;11.708;2022-07-03T14:29:32;1.70;;;1.60;;
1831;SDS011;1680;48.106;11.708;2022-07-03T14:32:16;2.10;;;2.00;;
1831;SDS011;1680;48.106;11.708;2022-07-03T14:34:55;2.20;;;2.00;;
1831;SDS011;1680;48.106;11.708;2022-07-03T14:37:22;2.20;;;2.00;;
1831;SDS011;1680;48.106;11.708;2022-07-03T14:39:49;2.20;;;2.00;;
1831;SDS011;1680;48.106;11.708;2022-07-03T14:42:15;2.00;;;1.90;;
1831;SDS011;1680;48.106;11.708;2022-07-03T14:44:42;1.90;;;1.80;;
1831;SDS011;1680;48.106;11.708;2022-07-03T14:47:08;2.10;;;1.90;;
1831;SDS011;1680;48.106;11.708;2022-07-03T14:49:35;2.10;;;2.00;;
1831;SDS011;1680;48.106;11.708;2022-07-03T14:52:01;2.10;;;1.90;;
1831;SDS011;1680;48.106;11.708;2022-07-03T14:54:29;2.00;;;1.90;;
1831;SDS011;1680;48.106;11.708;2022-07-03T14:56:57;2.27;;;2.07;;
1831;SDS011;1680;48.106;11.708;2022-07-03T14:59:36;2.23;;;2.10;;
1831;SDS011;1680;48.106;11.708;2022-07-03T15:02:05;3.60;;;2.00;;
1831;SDS011;1680;48.106;11.708;2022-07-03T15:04:36;2.07;;;1.80;;
1831;SDS011;1680;48.106;11.708;2022-07-03T15:07:05;2.40;;;2.20;;
1831;SDS011;1680;48.106;11.708;2022-07-03T15:09:33;2.00;;;1.90;;
1831;SDS011;1680;48.106;11.708;2022-07-03T15:12:03;3.90;;;1.90;;
1831;SDS011;1680;48.106;11.708;2022-07-03T15:14:48;2.00;;;1.90;;
1831;SDS011;1680;48.106;11.708;2022-07-03T15:17:15;2.30;;;2.10;;